Seadream 1 — C6PW8 — position and weather

sailwx.info

Track history (hours):
 
Tides and Currents Weather Stations Pressure Air Temp Water Temp Dewpoint Dewpoint Depression Visibility Wind Speed Wind Dir Waves Ship Positions

Seadream 1

Last reported at 2015-Mar-28 03:12 UTC. Time now 2015-Apr-02 00:14 UTC.
Position N 18°27' W 064°57'.

Length 105 m; draft 4.3 m.

Type: Ship. MMSI: 308908000.

Date/timePositionNaut miles runAvg speedWind from/ knotsBaromVisibWave heightAir tempDewpointWater temp
2015-Mar-28 03:12N 18°27' W 064°57'710.2
2015-Mar-28 02:33N 18°25' W 064°50'4 3.6
2015-Mar-28 01:25N 18°26' W 064°46'0 0.0
2015-Mar-28 00:22N 18°26' W 064°46'0 0.0
2015-Mar-27 23:29N 18°26' W 064°46'0 0.0
2015-Mar-27 22:18N 18°26' W 064°46'0 0.0
2015-Mar-27 21:30N 18°26' W 064°46'0 0.0
2015-Mar-27 20:31N 18°26' W 064°46'0 0.0
2015-Mar-27 19:32N 18°26' W 064°46'0 0.0
2015-Mar-27 18:32N 18°26' W 064°46'0 0.0
2015-Mar-27 17:33N 18°26' W 064°46'0 0.0
2015-Mar-27 16:28N 18°26' W 064°46'0 0.0
2015-Mar-27 15:28N 18°26' W 064°46'0 0.0
2015-Mar-27 14:29N 18°26' W 064°46'0 0.0
2015-Mar-27 13:30N 18°26' W 064°46'0 0.0
2015-Mar-27 12:30N 18°26' W 064°46'0 0.0
2015-Mar-27 11:31N 18°26' W 064°46'1 0.5
2015-Mar-27 10:16N 18°26' W 064°45'0 0.0
2015-Mar-27 09:29N 18°26' W 064°45'0 0.0
2015-Mar-27 08:30N 18°26' W 064°45'0 0.0
2015-Mar-27 07:30N 18°26' W 064°45'0 0.0
2015-Mar-27 06:31N 18°26' W 064°45'0 0.0
2015-Mar-27 05:32N 18°26' W 064°45'0 0.0
2015-Mar-27 04:32N 18°26' W 064°45'0 0.0
2015-Mar-27 03:33N 18°26' W 064°45'0 0.0
2015-Mar-27 02:33N 18°26' W 064°45'0 0.0
2015-Mar-27 01:33N 18°26' W 064°45'0 0.0
2015-Mar-27 00:34N 18°26' W 064°45'3 3.4
2015-Mar-26 23:34N 18°23' W 064°45'1714.0
2015-Mar-26 22:19N 18°28' W 064°28'2 0.2
2015-Mar-26 13:18N 18°29' W 064°26'7 2.2
2015-Mar-26 10:20N 18°22' W 064°26'  
2015-Mar-23 03:20N 18°17' W 064°37'810.1
2015-Mar-23 02:33N 18°18' W 064°45'4 3.8
2015-Mar-23 01:23N 18°20' W 064°48'0 0.0
2015-Mar-23 00:29N 18°20' W 064°48'0 0.0
2015-Mar-22 23:29N 18°20' W 064°48'0 0.0
2015-Mar-22 22:30N 18°20' W 064°48'0 0.1
2015-Mar-22 21:31N 18°20' W 064°48'0 0.0
2015-Mar-22 20:34N 18°20' W 064°48'0 0.1
2015-Mar-22 19:28N 18°20' W 064°48'0 0.0
2015-Mar-22 18:33N 18°20' W 064°48'0 0.0
2015-Mar-22 17:33N 18°20' W 064°48'0 0.0
2015-Mar-22 16:28N 18°20' W 064°48'0 0.0
2015-Mar-22 15:29N 18°20' W 064°48'0 0.0
2015-Mar-22 14:23N 18°20' W 064°48'0 0.0
2015-Mar-22 13:28N 18°20' W 064°48'0 0.0
2015-Mar-22 12:28N 18°20' W 064°48'0 0.0
2015-Mar-22 11:33N 18°20' W 064°48'0 0.0
2015-Mar-22 10:32N 18°20' W 064°48'7 7.1
2015-Mar-22 09:33N 18°13' W 064°48'2 2.0
2015-Mar-22 08:31N 18°15' W 064°49'2 1.1
2015-Mar-22 07:03N 18°15' W 064°48'3 6.0
2015-Mar-22 06:33N 18°12' W 064°49'7 0.9
2015-Mar-21 22:33N 18°15' W 064°56'1 0.1
2015-Mar-21 10:28N 18°14' W 064°56'1 0.8
2015-Mar-21 09:34N 18°14' W 064°55'2 1.6
2015-Mar-21 08:32N 18°12' W 064°55'26 3.7
2015-Mar-21 01:33N 18°22' W 064°29'1 0.8
2015-Mar-21 00:33N 18°22' W 064°29'1 0.7
2015-Mar-20 23:33N 18°22' W 064°28'4 0.4
2015-Mar-20 11:23N 18°27' W 064°27'1011.7
2015-Mar-20 10:33N 18°22' W 064°36'3 0.5
2015-Mar-20 04:24N 18°19' W 064°38'0 0.0
2015-Mar-20 03:31N 18°19' W 064°38'0 0.0
2015-Mar-20 02:20N 18°19' W 064°38'3 0.3
2015-Mar-19 17:28N 18°21' W 064°40'4 3.9
2015-Mar-19 16:30N 18°23' W 064°43'0 0.0
2015-Mar-19 15:30N 18°23' W 064°43'0 0.0
2015-Mar-19 14:19N 18°23' W 064°43'0 0.0
2015-Mar-19 13:32N 18°23' W 064°43'0 0.0
2015-Mar-19 12:29N 18°23' W 064°43'0 0.1
2015-Mar-19 11:34N 18°23' W 064°43'6 6.1
2015-Mar-19 10:34N 18°23' W 064°37'7 7.1
2015-Mar-19 09:34N 18°25' W 064°30'0 0.5
2015-Mar-19 08:34N 18°25' W 064°29'1 1.1
2015-Mar-19 07:33N 18°26' W 064°30'1 0.6
2015-Mar-19 06:34N 18°26' W 064°29'1 1.2
2015-Mar-19 05:34N 18°24' W 064°29'  
Track history (hours):
 
Tides and Currents Weather Stations Pressure Air Temp Water Temp Dewpoint Dewpoint Depression Visibility Wind Speed Wind Dir Waves Ship Positions

Seadream 1

Last reported at 2015-Mar-28 03:12 UTC. Time now 2015-Apr-02 00:14 UTC.
Position N 18°27' W 064°57'.

Length 105 m; draft 4.3 m.

Type: Ship. MMSI: 308908000.

Date/timePositionNaut miles runAvg speedWind from/ knotsBaromVisibWave heightAir tempDewpointWater temp
2015-Mar-28 03:12N 18°27' W 064°57'710.2
2015-Mar-28 02:33N 18°25' W 064°50'4 3.6
2015-Mar-28 01:25N 18°26' W 064°46'0 0.0
2015-Mar-28 00:22N 18°26' W 064°46'0 0.0
2015-Mar-27 23:29N 18°26' W 064°46'0 0.0
2015-Mar-27 22:18N 18°26' W 064°46'0 0.0
2015-Mar-27 21:30N 18°26' W 064°46'0 0.0
2015-Mar-27 20:31N 18°26' W 064°46'0 0.0
2015-Mar-27 19:32N 18°26' W 064°46'0 0.0
2015-Mar-27 18:32N 18°26' W 064°46'0 0.0
2015-Mar-27 17:33N 18°26' W 064°46'0 0.0
2015-Mar-27 16:28N 18°26' W 064°46'0 0.0
2015-Mar-27 15:28N 18°26' W 064°46'0 0.0
2015-Mar-27 14:29N 18°26' W 064°46'0 0.0
2015-Mar-27 13:30N 18°26' W 064°46'0 0.0
2015-Mar-27 12:30N 18°26' W 064°46'0 0.0
2015-Mar-27 11:31N 18°26' W 064°46'1 0.5
2015-Mar-27 10:16N 18°26' W 064°45'0 0.0
2015-Mar-27 09:29N 18°26' W 064°45'0 0.0
2015-Mar-27 08:30N 18°26' W 064°45'0 0.0
2015-Mar-27 07:30N 18°26' W 064°45'0 0.0
2015-Mar-27 06:31N 18°26' W 064°45'0 0.0
2015-Mar-27 05:32N 18°26' W 064°45'0 0.0
2015-Mar-27 04:32N 18°26' W 064°45'0 0.0
2015-Mar-27 03:33N 18°26' W 064°45'0 0.0
2015-Mar-27 02:33N 18°26' W 064°45'0 0.0
2015-Mar-27 01:33N 18°26' W 064°45'0 0.0
2015-Mar-27 00:34N 18°26' W 064°45'3 3.4
2015-Mar-26 23:34N 18°23' W 064°45'1714.0
2015-Mar-26 22:19N 18°28' W 064°28'2 0.2
2015-Mar-26 13:18N 18°29' W 064°26'7 2.2
2015-Mar-26 10:20N 18°22' W 064°26'  
2015-Mar-23 03:20N 18°17' W 064°37'810.1
2015-Mar-23 02:33N 18°18' W 064°45'4 3.8
2015-Mar-23 01:23N 18°20' W 064°48'0 0.0
2015-Mar-23 00:29N 18°20' W 064°48'0 0.0
2015-Mar-22 23:29N 18°20' W 064°48'0 0.0
2015-Mar-22 22:30N 18°20' W 064°48'0 0.1
2015-Mar-22 21:31N 18°20' W 064°48'0 0.0
2015-Mar-22 20:34N 18°20' W 064°48'0 0.1
2015-Mar-22 19:28N 18°20' W 064°48'0 0.0
2015-Mar-22 18:33N 18°20' W 064°48'0 0.0
2015-Mar-22 17:33N 18°20' W 064°48'0 0.0
2015-Mar-22 16:28N 18°20' W 064°48'0 0.0
2015-Mar-22 15:29N 18°20' W 064°48'0 0.0
2015-Mar-22 14:23N 18°20' W 064°48'0 0.0
2015-Mar-22 13:28N 18°20' W 064°48'0 0.0
2015-Mar-22 12:28N 18°20' W 064°48'0 0.0
2015-Mar-22 11:33N 18°20' W 064°48'0 0.0
2015-Mar-22 10:32N 18°20' W 064°48'7 7.1
2015-Mar-22 09:33N 18°13' W 064°48'2 2.0
2015-Mar-22 08:31N 18°15' W 064°49'2 1.1
2015-Mar-22 07:03N 18°15' W 064°48'3 6.0
2015-Mar-22 06:33N 18°12' W 064°49'7 0.9
2015-Mar-21 22:33N 18°15' W 064°56'1 0.1
2015-Mar-21 10:28N 18°14' W 064°56'1 0.8
2015-Mar-21 09:34N 18°14' W 064°55'2 1.6
2015-Mar-21 08:32N 18°12' W 064°55'26 3.7
2015-Mar-21 01:33N 18°22' W 064°29'1 0.8
2015-Mar-21 00:33N 18°22' W 064°29'1 0.7
2015-Mar-20 23:33N 18°22' W 064°28'4 0.4
2015-Mar-20 11:23N 18°27' W 064°27'1011.7
2015-Mar-20 10:33N 18°22' W 064°36'3 0.5
2015-Mar-20 04:24N 18°19' W 064°38'0 0.0
2015-Mar-20 03:31N 18°19' W 064°38'0 0.0
2015-Mar-20 02:20N 18°19' W 064°38'3 0.3
2015-Mar-19 17:28N 18°21' W 064°40'4 3.9
2015-Mar-19 16:30N 18°23' W 064°43'0 0.0
2015-Mar-19 15:30N 18°23' W 064°43'0 0.0
2015-Mar-19 14:19N 18°23' W 064°43'0 0.0
2015-Mar-19 13:32N 18°23' W 064°43'0 0.0
2015-Mar-19 12:29N 18°23' W 064°43'0 0.1
2015-Mar-19 11:34N 18°23' W 064°43'6 6.1
2015-Mar-19 10:34N 18°23' W 064°37'7 7.1
2015-Mar-19 09:34N 18°25' W 064°30'0 0.5
2015-Mar-19 08:34N 18°25' W 064°29'1 1.1
2015-Mar-19 07:33N 18°26' W 064°30'1 0.6
2015-Mar-19 06:34N 18°26' W 064°29'1 1.2
2015-Mar-19 05:34N 18°24' W 064°29'  

Dump ship's entire track history